createdAt,value
2018-12-12T00:02:01.543Z,3.62
2018-12-12T00:04:30.594Z,3.60
2018-12-12T00:06:57.652Z,3.55
2018-12-12T00:09:24.854Z,3.59
2018-12-12T00:11:51.861Z,3.68
2018-12-12T00:14:19.137Z,3.69
2018-12-12T00:16:46.419Z,3.60
2018-12-12T00:19:13.689Z,3.57
2018-12-12T00:21:41.261Z,3.68
2018-12-12T00:24:09.057Z,3.68
2018-12-12T00:26:36.157Z,3.56
2018-12-12T00:29:03.762Z,3.46
2018-12-12T00:31:30.838Z,3.73
2018-12-12T00:33:58.014Z,3.91
2018-12-12T00:36:25.137Z,3.50
2018-12-12T00:38:52.491Z,3.42
2018-12-12T00:41:19.576Z,3.43
2018-12-12T00:43:46.673Z,3.41
2018-12-12T00:46:13.903Z,3.49
2018-12-12T00:48:40.902Z,3.44
2018-12-12T00:51:07.947Z,3.46
2018-12-12T00:53:35.222Z,3.37
2018-12-12T00:56:02.285Z,3.45
2018-12-12T00:58:29.405Z,3.45
2018-12-12T01:00:56.831Z,3.50
2018-12-12T01:03:23.949Z,3.47
2018-12-12T01:05:51.069Z,3.40
2018-12-12T01:08:18.093Z,3.44
2018-12-12T01:10:45.140Z,3.51
2018-12-12T01:13:12.269Z,3.62
2018-12-12T01:15:39.289Z,3.45
2018-12-12T01:18:07.707Z,3.42
2018-12-12T01:20:34.816Z,3.50
2018-12-12T01:23:01.981Z,3.58
2018-12-12T01:25:29.138Z,3.56
2018-12-12T01:27:56.877Z,3.51
2018-12-12T01:30:23.905Z,3.53
2018-12-12T01:32:50.969Z,3.49
2018-12-12T01:35:18.245Z,3.50
2018-12-12T01:37:45.265Z,3.51
2018-12-12T01:40:12.381Z,3.51
2018-12-12T01:42:42.721Z,3.47
2018-12-12T01:45:12.825Z,3.52
2018-12-12T01:47:43.049Z,3.46
2018-12-12T01:50:11.590Z,3.52
2018-12-12T01:52:39.060Z,3.60
2018-12-12T01:55:06.227Z,3.55
2018-12-12T01:57:33.256Z,3.50
2018-12-12T02:00:00.278Z,3.53
2018-12-12T02:02:27.314Z,3.53
2018-12-12T02:04:54.358Z,3.53
2018-12-12T02:07:21.469Z,3.54
2018-12-12T02:09:48.581Z,3.49
2018-12-12T02:12:15.610Z,3.51
2018-12-12T02:14:43.663Z,3.47
2018-12-12T02:17:10.684Z,3.46
2018-12-12T02:19:37.821Z,3.42
2018-12-12T02:22:04.823Z,3.39
2018-12-12T02:24:31.969Z,3.47
2018-12-12T02:26:59.258Z,3.49
2018-12-12T02:29:26.404Z,3.57
2018-12-12T02:31:53.477Z,3.53
2018-12-12T02:34:20.745Z,3.49
2018-12-12T02:36:47.761Z,3.47
2018-12-12T02:39:14.766Z,3.50
2018-12-12T02:41:41.841Z,3.38
2018-12-12T02:44:09.302Z,3.43
2018-12-12T02:46:36.437Z,3.31
2018-12-12T02:49:03.566Z,3.29
2018-12-12T02:51:30.600Z,3.29
2018-12-12T02:53:57.632Z,3.39
2018-12-12T02:56:24.677Z,3.31
2018-12-12T02:58:51.673Z,3.33
2018-12-12T03:01:18.699Z,3.27
2018-12-12T03:03:45.755Z,3.33
2018-12-12T03:06:12.878Z,3.50
2018-12-12T03:08:39.915Z,3.53
2018-12-12T03:11:07.043Z,3.57
2018-12-12T03:13:34.098Z,3.63
2018-12-12T03:16:01.124Z,3.52
2018-12-12T03:18:28.268Z,3.44
2018-12-12T03:20:55.292Z,3.56
2018-12-12T03:23:22.303Z,3.50
2018-12-12T03:25:49.712Z,3.53
2018-12-12T03:28:23.539Z,3.54
2018-12-12T03:30:50.877Z,3.52
2018-12-12T03:33:17.890Z,3.49
2018-12-12T03:35:44.917Z,3.50
2018-12-12T03:38:11.946Z,3.56
2018-12-12T03:40:40.285Z,3.55
2018-12-12T03:43:07.634Z,3.57
2018-12-12T03:45:34.666Z,3.60
2018-12-12T03:48:01.714Z,3.64
2018-12-12T03:50:28.851Z,3.71
2018-12-12T03:52:55.860Z,3.66
2018-12-12T03:55:22.893Z,3.75
2018-12-12T03:57:49.901Z,3.76
2018-12-12T04:00:17.082Z,3.83
2018-12-12T04:02:44.109Z,3.85
2018-12-12T04:05:11.253Z,3.77
2018-12-12T04:07:38.516Z,4.92
2018-12-12T04:10:06.091Z,6.23
2018-12-12T04:12:33.177Z,6.54
2018-12-12T04:15:00.201Z,6.67
2018-12-12T04:17:27.237Z,6.31
2018-12-12T04:19:54.258Z,6.48
2018-12-12T04:22:21.493Z,7.17
2018-12-12T04:24:48.873Z,6.90
2018-12-12T04:27:15.890Z,6.36
2018-12-12T04:29:42.905Z,5.89
2018-12-12T04:32:09.985Z,5.86
2018-12-12T04:34:36.992Z,7.10
2018-12-12T04:37:04.109Z,7.10
2018-12-12T04:39:31.121Z,6.68
2018-12-12T04:41:58.766Z,6.11
2018-12-12T04:44:27.176Z,5.54
2018-12-12T04:46:54.457Z,5.88
2018-12-12T04:49:21.461Z,6.22
2018-12-12T04:51:48.463Z,5.68
2018-12-12T04:54:15.904Z,7.58
2018-12-12T04:56:42.932Z,7.72
2018-12-12T04:59:10.265Z,6.81
2018-12-12T05:01:37.417Z,7.09
2018-12-12T05:04:05.334Z,6.21
2018-12-12T05:06:32.931Z,6.86
2018-12-12T05:09:01.187Z,6.69
2018-12-12T05:11:30.147Z,7.01
2018-12-12T05:13:57.914Z,7.22
2018-12-12T05:16:25.684Z,7.06
2018-12-12T05:18:52.727Z,7.17
2018-12-12T05:21:19.734Z,7.10
2018-12-12T05:23:53.617Z,7.05
2018-12-12T05:26:20.648Z,5.65
2018-12-12T05:28:47.655Z,4.95
2018-12-12T05:31:14.726Z,4.72
2018-12-12T05:33:41.767Z,4.65
2018-12-12T05:36:08.905Z,4.39
2018-12-12T05:38:35.954Z,4.71
2018-12-12T05:41:03.110Z,4.48
2018-12-12T05:43:30.142Z,4.36
2018-12-12T05:45:57.401Z,4.26
2018-12-12T05:48:24.425Z,4.13
2018-12-12T05:50:51.445Z,4.10
2018-12-12T05:53:18.598Z,4.08
2018-12-12T05:55:45.589Z,4.05
2018-12-12T05:58:12.617Z,4.21
2018-12-12T06:00:39.641Z,4.09
2018-12-12T06:03:06.646Z,4.07
2018-12-12T06:05:33.661Z,4.13
2018-12-12T06:08:00.935Z,4.05
2018-12-12T06:10:27.953Z,4.04
2018-12-12T06:12:54.961Z,3.95
2018-12-12T06:15:22.021Z,4.02
2018-12-12T06:17:49.188Z,3.95
2018-12-12T06:20:16.362Z,4.00
2018-12-12T06:22:43.526Z,4.01
2018-12-12T06:25:10.947Z,3.89
2018-12-12T06:27:38.193Z,4.01
2018-12-12T06:30:06.146Z,4.15
2018-12-12T06:32:33.215Z,4.12
2018-12-12T06:35:00.242Z,4.04
2018-12-12T06:37:27.275Z,4.13
2018-12-12T06:39:54.314Z,4.13
2018-12-12T06:42:21.322Z,4.05
2018-12-12T06:44:48.343Z,3.95
2018-12-12T06:47:15.729Z,3.97
2018-12-12T06:49:42.794Z,3.98
2018-12-12T06:52:09.873Z,4.04
2018-12-12T06:54:37.183Z,4.05
2018-12-12T06:57:04.222Z,4.02
2018-12-12T06:59:31.333Z,3.95
2018-12-12T07:01:58.619Z,3.93
2018-12-12T07:04:25.865Z,4.21
2018-12-12T07:06:53.026Z,4.09
2018-12-12T07:09:20.069Z,4.08
2018-12-12T07:11:47.114Z,4.01
2018-12-12T07:14:14.133Z,4.07
2018-12-12T07:17:00.701Z,4.18
2018-12-12T07:19:27.862Z,4.12
2018-12-12T07:21:54.994Z,4.01
2018-12-12T07:24:22.112Z,4.06
2018-12-12T07:26:49.137Z,4.03
2018-12-12T07:29:16.209Z,4.04
2018-12-12T07:31:43.245Z,4.01
2018-12-12T07:34:10.394Z,4.07
2018-12-12T07:36:37.801Z,4.00
2018-12-12T07:39:07.413Z,3.97
2018-12-12T07:41:34.482Z,4.03
2018-12-12T07:44:04.649Z,4.01
2018-12-12T07:46:54.838Z,4.03
2018-12-12T07:49:24.319Z,4.04
2018-12-12T07:52:08.310Z,4.05
2018-12-12T07:54:35.359Z,4.15
2018-12-12T07:57:02.378Z,4.34
2018-12-12T07:59:29.417Z,4.40
2018-12-12T08:01:56.462Z,4.40
2018-12-12T08:04:23.538Z,4.37
2018-12-12T08:06:50.591Z,4.44
2018-12-12T08:09:17.585Z,4.68
2018-12-12T08:11:44.748Z,4.45
2018-12-12T08:14:11.905Z,4.40
2018-12-12T08:16:38.913Z,4.45
2018-12-12T08:19:05.937Z,4.49
2018-12-12T08:21:33.453Z,4.56
2018-12-12T08:24:00.462Z,4.61
2018-12-12T08:26:27.514Z,4.65
2018-12-12T08:29:01.603Z,4.71
2018-12-12T08:31:29.675Z,4.65
2018-12-12T08:33:56.714Z,4.85
2018-12-12T08:36:23.757Z,4.90
2018-12-12T08:38:51.079Z,4.56
2018-12-12T08:41:18.089Z,4.41
2018-12-12T08:43:45.102Z,4.41
2018-12-12T08:46:12.154Z,4.46
2018-12-12T08:48:39.315Z,4.42
2018-12-12T08:51:06.334Z,4.49
2018-12-12T08:53:33.743Z,4.52
2018-12-12T08:56:00.769Z,4.53
2018-12-12T08:58:27.833Z,4.48
2018-12-12T09:00:54.898Z,4.55
2018-12-12T09:03:21.921Z,4.55
2018-12-12T09:05:49.070Z,4.58
2018-12-12T09:08:16.222Z,4.63
2018-12-12T09:10:43.529Z,4.57
2018-12-12T09:13:10.555Z,4.51
2018-12-12T09:15:37.593Z,4.57
2018-12-12T09:18:06.041Z,4.62
2018-12-12T09:20:33.105Z,4.60
2018-12-12T09:23:00.680Z,4.66
2018-12-12T09:25:27.721Z,4.61
2018-12-12T09:27:54.745Z,4.57
2018-12-12T09:30:23.934Z,4.64
2018-12-12T09:32:52.999Z,4.58
2018-12-12T09:35:26.797Z,4.60
2018-12-12T09:37:54.057Z,4.73
2018-12-12T09:40:21.089Z,4.71
2018-12-12T09:42:48.262Z,4.71
2018-12-12T09:45:21.549Z,4.76
2018-12-12T09:47:44.359Z,4.73
2018-12-12T09:50:11.749Z,4.73
2018-12-12T09:52:40.790Z,4.79
2018-12-12T09:55:09.850Z,4.83
2018-12-12T09:57:37.063Z,4.86
2018-12-12T10:00:04.283Z,4.83
2018-12-12T10:02:31.322Z,4.86
2018-12-12T10:04:58.397Z,4.86
2018-12-12T10:07:25.410Z,4.88
2018-12-12T10:09:52.430Z,4.89
2018-12-12T10:12:19.456Z,4.90
2018-12-12T10:14:46.466Z,4.90
2018-12-12T10:17:13.474Z,4.95
2018-12-12T10:19:40.906Z,4.88
2018-12-12T10:22:08.059Z,4.97
2018-12-12T10:24:35.198Z,5.03
2018-12-12T10:27:02.274Z,5.00
2018-12-12T10:29:29.294Z,4.98
2018-12-12T10:31:56.321Z,4.94
2018-12-12T10:34:23.366Z,5.03
2018-12-12T10:36:51.029Z,5.02
2018-12-12T10:39:18.079Z,5.01
2018-12-12T10:41:45.110Z,4.94
2018-12-12T10:44:12.126Z,4.91
2018-12-12T10:46:40.565Z,5.03
2018-12-12T10:49:07.577Z,4.96
2018-12-12T10:51:34.763Z,4.94
2018-12-12T10:54:02.843Z,4.98
2018-12-12T10:56:29.866Z,5.04
2018-12-12T10:58:56.889Z,5.03
2018-12-12T11:01:26.946Z,5.02
2018-12-12T11:03:54.242Z,5.04
2018-12-12T11:06:21.281Z,5.08
2018-12-12T11:08:48.318Z,5.09
2018-12-12T11:11:15.362Z,5.12
2018-12-12T11:13:42.476Z,5.17
2018-12-12T11:16:09.590Z,5.14
2018-12-12T11:18:37.695Z,5.20
2018-12-12T11:21:04.848Z,5.20
2018-12-12T11:23:31.986Z,5.15
2018-12-12T11:25:59.008Z,5.15
2018-12-12T11:28:26.043Z,5.21
2018-12-12T11:30:53.062Z,5.19
2018-12-12T11:33:20.289Z,5.29
2018-12-12T11:35:47.316Z,5.28
2018-12-12T11:38:14.350Z,5.22
2018-12-12T11:40:41.734Z,5.23
2018-12-12T11:43:08.779Z,5.22
2018-12-12T11:45:35.797Z,5.17
2018-12-12T11:48:02.959Z,5.14
2018-12-12T11:50:29.965Z,5.13
2018-12-12T11:52:56.982Z,5.02
2018-12-12T11:55:24.113Z,5.13
2018-12-12T11:57:51.270Z,5.12
2018-12-12T12:00:18.885Z,5.19
2018-12-12T12:02:45.898Z,5.15
2018-12-12T12:05:12.933Z,5.09
2018-12-12T12:07:40.194Z,5.16
2018-12-12T12:10:09.128Z,5.07
2018-12-12T12:12:36.143Z,6.17
2018-12-12T12:15:04.269Z,7.10
2018-12-12T12:17:31.301Z,7.31
2018-12-12T12:19:58.326Z,7.03
2018-12-12T12:22:25.354Z,7.18
2018-12-12T12:24:52.490Z,7.35
2018-12-12T12:27:19.501Z,7.17
2018-12-12T12:29:46.506Z,7.51
2018-12-12T12:32:13.525Z,7.43
2018-12-12T12:34:40.656Z,6.98
2018-12-12T12:37:07.668Z,7.13
2018-12-12T12:39:34.685Z,7.19
2018-12-12T12:42:02.596Z,8.08
2018-12-12T12:44:29.613Z,8.14
2018-12-12T12:46:56.641Z,7.45
2018-12-12T12:49:23.842Z,7.01
2018-12-12T12:51:50.850Z,7.59
2018-12-12T12:54:17.903Z,7.56
2018-12-12T12:56:45.874Z,7.97
2018-12-12T12:59:12.897Z,7.19
2018-12-12T13:01:40.067Z,6.94
2018-12-12T13:04:09.899Z,7.41
2018-12-12T13:06:36.694Z,7.15
2018-12-12T13:09:06.630Z,7.43
2018-12-12T13:11:34.861Z,7.33
2018-12-12T13:14:02.353Z,7.27
2018-12-12T13:16:29.705Z,8.00
2018-12-12T13:18:56.725Z,8.16
2018-12-12T13:21:24.056Z,7.61
2018-12-12T13:23:51.433Z,7.63
2018-12-12T13:26:18.463Z,7.97
2018-12-12T13:28:45.593Z,7.97
2018-12-12T13:31:12.615Z,7.33
2018-12-12T13:33:39.890Z,6.75
2018-12-12T13:36:07.161Z,7.26
2018-12-12T13:38:34.301Z,6.81
2018-12-12T13:41:01.318Z,7.18
2018-12-12T13:43:29.426Z,7.34
2018-12-12T13:45:56.450Z,7.33
2018-12-12T13:48:23.583Z,6.83
2018-12-12T13:50:50.613Z,6.63
2018-12-12T13:53:17.649Z,6.41
2018-12-12T13:55:44.681Z,6.80
2018-12-12T13:58:11.705Z,6.95
2018-12-12T14:00:39.132Z,6.60
2018-12-12T14:03:06.482Z,6.98
2018-12-12T14:05:33.621Z,7.23
2018-12-12T14:08:00.657Z,6.80
2018-12-12T14:10:27.674Z,6.66
2018-12-12T14:12:54.914Z,6.34
2018-12-12T14:15:21.930Z,6.81
2018-12-12T14:17:48.959Z,7.12
2018-12-12T14:20:16.014Z,7.43
2018-12-12T14:22:43.017Z,7.51
2018-12-12T14:25:10.149Z,7.32
2018-12-12T14:27:39.047Z,7.34
2018-12-12T14:30:07.220Z,6.69
2018-12-12T14:32:34.299Z,6.52
2018-12-12T14:35:01.700Z,6.25
2018-12-12T14:37:28.736Z,6.76
2018-12-12T14:39:55.756Z,6.72
2018-12-12T14:42:23.089Z,6.63
2018-12-12T14:44:50.169Z,6.72
2018-12-12T14:47:17.204Z,7.00
2018-12-12T14:49:44.253Z,6.93
2018-12-12T14:52:11.273Z,6.58
2018-12-12T14:54:38.357Z,6.17
2018-12-12T14:57:05.423Z,6.05
2018-12-12T14:59:32.434Z,6.34
2018-12-12T15:01:59.451Z,6.05
2018-12-12T15:04:26.853Z,6.11
2018-12-12T15:06:53.897Z,6.56
2018-12-12T15:09:20.952Z,6.63
2018-12-12T15:11:48.063Z,6.17
2018-12-12T15:14:15.057Z,6.05
2018-12-12T15:16:42.090Z,6.14
2018-12-12T15:19:09.107Z,6.38
2018-12-12T15:21:36.167Z,5.90
2018-12-12T15:24:03.326Z,5.82
2018-12-12T15:26:30.457Z,6.25
2018-12-12T15:28:57.708Z,6.18
2018-12-12T15:31:24.850Z,6.19
2018-12-12T15:33:51.877Z,5.70
2018-12-12T15:36:18.903Z,6.07
2018-12-12T15:38:45.920Z,5.80
2018-12-12T15:41:13.186Z,5.95
2018-12-12T15:43:40.246Z,5.83
2018-12-12T15:46:07.274Z,5.95
2018-12-12T15:48:34.298Z,5.28
2018-12-12T15:51:01.314Z,5.07
2018-12-12T15:53:28.454Z,5.11
2018-12-12T15:55:55.547Z,5.13
2018-12-12T15:58:22.546Z,4.87
2018-12-12T16:00:49.695Z,4.99
2018-12-12T16:03:18.169Z,4.94
2018-12-12T16:05:45.189Z,5.13
2018-12-12T16:08:12.214Z,5.06
2018-12-12T16:10:39.274Z,5.41
2018-12-12T16:13:06.292Z,5.25
2018-12-12T16:15:33.309Z,5.65
2018-12-12T16:18:00.346Z,5.61
2018-12-12T16:20:27.381Z,5.37
2018-12-12T16:22:54.393Z,5.08
2018-12-12T16:25:21.430Z,5.12
2018-12-12T16:27:48.673Z,5.64
2018-12-12T16:30:15.689Z,5.53
2018-12-12T16:32:42.709Z,4.44
2018-12-12T16:35:09.726Z,4.01
2018-12-12T16:37:36.737Z,3.57
2018-12-12T16:40:04.481Z,3.52
2018-12-12T16:42:31.523Z,3.58
2018-12-12T16:45:00.559Z,3.49
2018-12-12T16:47:39.374Z,3.53
2018-12-12T16:50:06.715Z,3.27
2018-12-12T16:52:33.738Z,3.29
2018-12-12T16:55:01.922Z,3.31
2018-12-12T16:57:28.941Z,3.28
2018-12-12T16:59:55.983Z,3.22
2018-12-12T17:02:23.108Z,3.11
2018-12-12T17:04:50.162Z,3.10
2018-12-12T17:07:17.323Z,3.03
2018-12-12T17:09:44.350Z,3.10
2018-12-12T17:12:11.367Z,3.12
2018-12-12T17:14:38.409Z,3.08
2018-12-12T17:17:05.435Z,3.17
2018-12-12T17:19:32.436Z,3.17
2018-12-12T17:21:59.789Z,3.08
2018-12-12T17:24:26.794Z,3.06
2018-12-12T17:26:53.812Z,3.01
2018-12-12T17:29:21.243Z,2.99
2018-12-12T17:31:48.254Z,2.94
2018-12-12T17:34:15.277Z,2.90
2018-12-12T17:36:42.349Z,3.01
2018-12-12T17:39:09.365Z,3.03
2018-12-12T17:41:36.898Z,2.98
2018-12-12T17:44:03.935Z,2.94
2018-12-12T17:46:30.942Z,2.94
2018-12-12T17:48:57.938Z,2.89
2018-12-12T17:51:24.948Z,2.86
2018-12-12T17:53:51.953Z,2.82
2018-12-12T17:56:19.049Z,2.85
2018-12-12T17:58:46.045Z,2.84
2018-12-12T18:01:13.533Z,2.94
2018-12-12T18:03:42.869Z,2.85
2018-12-12T18:06:28.814Z,2.86
2018-12-12T18:08:56.231Z,2.85
2018-12-12T18:11:23.237Z,2.86
2018-12-12T18:13:50.243Z,2.82
2018-12-12T18:16:19.298Z,2.96
2018-12-12T18:18:46.313Z,2.89
2018-12-12T18:21:13.333Z,2.88
2018-12-12T18:23:42.801Z,2.86
2018-12-12T18:26:11.053Z,2.81
2018-12-12T18:28:38.146Z,2.82
2018-12-12T18:31:05.159Z,2.81
2018-12-12T18:33:34.223Z,2.77
2018-12-12T18:36:24.346Z,2.78
2018-12-12T18:38:51.571Z,2.69
2018-12-12T18:41:18.626Z,2.66
2018-12-12T18:43:47.671Z,2.68
2018-12-12T18:46:18.259Z,2.62
2018-12-12T18:48:45.491Z,2.60
2018-12-12T18:51:14.726Z,2.68
2018-12-12T18:53:43.310Z,2.76
2018-12-12T18:56:12.353Z,2.72
2018-12-12T18:58:39.503Z,2.79
2018-12-12T19:01:06.540Z,2.82
2018-12-12T19:03:33.934Z,2.76
2018-12-12T19:06:01.195Z,2.82
2018-12-12T19:08:28.224Z,2.85
2018-12-12T19:10:55.521Z,3.01
2018-12-12T19:13:22.778Z,3.31
2018-12-12T19:15:49.979Z,3.51
2018-12-12T19:18:18.299Z,3.46
2018-12-12T19:20:45.730Z,3.34
2018-12-12T19:23:12.878Z,3.33
2018-12-12T19:25:40.041Z,3.20
2018-12-12T19:28:07.049Z,3.06
2018-12-12T19:30:34.167Z,3.04
2018-12-12T19:33:01.188Z,3.03
2018-12-12T19:35:34.664Z,3.00
2018-12-12T19:37:57.273Z,3.06
2018-12-12T19:40:24.269Z,3.07
2018-12-12T19:42:51.274Z,3.01
2018-12-12T19:45:18.385Z,3.05
2018-12-12T19:47:45.411Z,3.08
2018-12-12T19:50:12.566Z,3.13
2018-12-12T19:52:39.711Z,3.18
2018-12-12T19:55:06.901Z,3.20
2018-12-12T19:57:33.917Z,3.16
2018-12-12T20:00:00.975Z,3.12
2018-12-12T20:02:28.111Z,3.87
2018-12-12T20:04:55.138Z,4.38
2018-12-12T20:07:22.262Z,4.33
2018-12-12T20:09:49.277Z,4.22
2018-12-12T20:12:16.567Z,4.25
2018-12-12T20:14:43.594Z,4.59
2018-12-12T20:17:10.616Z,4.57
2018-12-12T20:19:37.754Z,4.53
2018-12-12T20:22:04.849Z,4.40
2018-12-12T20:24:31.865Z,3.77
2018-12-12T20:26:59.017Z,4.20
2018-12-12T20:29:26.024Z,4.32
2018-12-12T20:31:53.045Z,4.22
2018-12-12T20:34:20.115Z,4.10
2018-12-12T20:36:47.561Z,4.31
2018-12-12T20:39:14.595Z,3.93
2018-12-12T20:41:42.078Z,4.37
2018-12-12T20:44:09.085Z,4.13
2018-12-12T20:46:36.103Z,4.59
2018-12-12T20:49:03.382Z,4.39
2018-12-12T20:51:30.553Z,4.60
2018-12-12T20:53:57.640Z,4.29
2018-12-12T20:56:24.753Z,3.86
2018-12-12T20:58:51.774Z,4.03
2018-12-12T21:01:18.801Z,4.03
2018-12-12T21:03:45.830Z,3.50
2018-12-12T21:06:12.967Z,3.13
2018-12-12T21:08:39.969Z,3.09
2018-12-12T21:11:11.514Z,3.04
2018-12-12T21:13:38.557Z,2.98
2018-12-12T21:16:05.589Z,2.92
2018-12-12T21:18:32.582Z,2.84
2018-12-12T21:20:59.661Z,2.70
2018-12-12T21:23:26.895Z,2.73
2018-12-12T21:25:54.167Z,2.76
2018-12-12T21:28:21.511Z,2.74
2018-12-12T21:30:48.687Z,2.67
2018-12-12T21:33:15.704Z,2.65
2018-12-12T21:35:43.497Z,2.64
2018-12-12T21:38:10.624Z,2.65
2018-12-12T21:40:37.655Z,2.71
2018-12-12T21:43:04.842Z,2.71
2018-12-12T21:45:32.440Z,2.71
2018-12-12T21:47:59.493Z,2.63
2018-12-12T21:50:26.501Z,2.60
2018-12-12T21:52:53.510Z,2.50
2018-12-12T21:55:20.554Z,2.59
2018-12-12T21:57:47.786Z,2.72
2018-12-12T22:00:14.874Z,2.67
2018-12-12T22:02:41.955Z,2.59
2018-12-12T22:05:08.983Z,2.82
2018-12-12T22:07:36.039Z,2.81
2018-12-12T22:10:03.849Z,2.65
2018-12-12T22:12:30.859Z,2.66
2018-12-12T22:14:57.978Z,2.65
2018-12-12T22:17:25.998Z,2.58
2018-12-12T22:19:53.551Z,2.61
2018-12-12T22:22:20.704Z,2.68
2018-12-12T22:24:47.995Z,2.69
2018-12-12T22:27:15.013Z,2.71
2018-12-12T22:29:42.296Z,2.69
2018-12-12T22:32:09.354Z,2.68
2018-12-12T22:34:36.352Z,2.62
2018-12-12T22:37:03.419Z,2.71
2018-12-12T22:39:30.449Z,2.71
2018-12-12T22:41:57.465Z,2.70
2018-12-12T22:44:24.888Z,2.71
2018-12-12T22:46:51.964Z,2.81
2018-12-12T22:49:19.046Z,2.85
2018-12-12T22:51:46.327Z,2.76
2018-12-12T22:54:14.362Z,2.64
2018-12-12T22:56:42.436Z,2.67
2018-12-12T22:59:10.173Z,2.70
2018-12-12T23:01:38.027Z,2.72
2018-12-12T23:04:05.626Z,2.70
2018-12-12T23:06:32.902Z,2.72
2018-12-12T23:08:59.938Z,2.66
2018-12-12T23:11:27.318Z,2.70
2018-12-12T23:13:54.601Z,2.77
2018-12-12T23:16:22.636Z,2.81
2018-12-12T23:18:49.895Z,2.91
2018-12-12T23:21:16.930Z,2.86
2018-12-12T23:23:43.995Z,2.89
2018-12-12T23:26:11.070Z,2.92
2018-12-12T23:28:38.084Z,2.88
2018-12-12T23:31:05.742Z,2.90
2018-12-12T23:33:32.839Z,2.79
2018-12-12T23:35:59.874Z,2.80
2018-12-12T23:38:26.918Z,2.88
2018-12-12T23:40:54.773Z,2.99
2018-12-12T23:43:21.812Z,2.90
2018-12-12T23:45:49.389Z,2.92
2018-12-12T23:48:16.941Z,3.29
2018-12-12T23:50:43.985Z,3.33
2018-12-12T23:53:11.018Z,2.97
2018-12-12T23:55:39.544Z,2.77
2018-12-12T23:58:06.565Z,2.67
